createdAt,value
2022-12-24T00:00:14.889Z,647
2022-12-24T00:01:17.443Z,646.7
2022-12-24T00:02:20.235Z,646.3
2022-12-24T00:03:23.671Z,646.5
2022-12-24T00:04:26.276Z,647.3
2022-12-24T00:05:27.950Z,646.8
2022-12-24T00:06:30.480Z,646.7
2022-12-24T00:07:32.999Z,646.2
2022-12-24T00:08:35.580Z,645.5
2022-12-24T00:09:37.824Z,645.9
2022-12-24T00:10:40.359Z,645.8
2022-12-24T00:11:42.910Z,645.8
2022-12-24T00:12:45.165Z,645.7
2022-12-24T00:13:47.793Z,645.7
2022-12-24T00:14:50.462Z,645.4
2022-12-24T00:15:52.406Z,644.9
2022-12-24T00:16:54.742Z,644.8
2022-12-24T00:17:57.403Z,645
2022-12-24T00:18:59.702Z,644.9
2022-12-24T00:20:02.343Z,644.7
2022-12-24T00:21:04.851Z,644.7
2022-12-24T00:22:07.367Z,643.9
2022-12-24T00:23:09.381Z,643.4
2022-12-24T00:24:11.882Z,643.6
2022-12-24T00:25:14.378Z,643.5
2022-12-24T00:26:16.696Z,644
2022-12-24T00:27:18.915Z,644.4
2022-12-24T00:28:20.861Z,643.7
2022-12-24T00:29:23.415Z,643.5
2022-12-24T00:30:25.768Z,643.7
2022-12-24T00:31:28.697Z,643.7
2022-12-24T00:32:30.984Z,644
2022-12-24T00:33:33.527Z,643.4
2022-12-24T00:34:36.098Z,643.7
2022-12-24T00:35:38.624Z,644.5
2022-12-24T00:36:41.129Z,644.1
2022-12-24T00:37:43.358Z,644.6
2022-12-24T00:38:45.587Z,644.5
2022-12-24T00:39:47.503Z,644.1
2022-12-24T00:40:49.730Z,643.4
2022-12-24T00:41:51.691Z,642.5
2022-12-24T00:42:53.928Z,642.3
2022-12-24T00:43:56.547Z,641.6
2022-12-24T00:44:59.110Z,640.8
2022-12-24T00:46:02.249Z,641
2022-12-24T00:48:09.801Z,641.2
2022-12-24T00:49:12.349Z,641.2
2022-12-24T00:50:14.882Z,640.4
2022-12-24T00:51:17.809Z,640.7
2022-12-24T00:52:20.350Z,640.5
2022-12-24T00:53:22.874Z,640.4
2022-12-24T00:54:25.391Z,641
2022-12-24T00:55:27.996Z,640.8
2022-12-24T00:56:30.622Z,640.9
2022-12-24T00:57:33.134Z,640.7
2022-12-24T00:58:35.665Z,640.3
2022-12-24T00:59:38.564Z,639.5
2022-12-24T01:00:55.436Z,639.4
2022-12-24T01:01:58.842Z,639.8
2022-12-24T01:03:02.631Z,639.8
2022-12-24T01:04:05.307Z,640.4
2022-12-24T01:05:07.540Z,640.4
2022-12-24T01:06:09.471Z,639.5
2022-12-24T01:07:11.732Z,639.3
2022-12-24T01:08:14.229Z,638.5
2022-12-24T01:09:16.469Z,637.8
2022-12-24T01:10:19.029Z,637.7
2022-12-24T01:11:21.635Z,637.6
2022-12-24T01:12:23.920Z,637.1
2022-12-24T01:13:26.421Z,637
2022-12-24T01:14:28.919Z,637.1
2022-12-24T01:15:31.987Z,636.7
2022-12-24T01:16:34.591Z,636.9
2022-12-24T01:17:37.269Z,636.7
2022-12-24T01:18:39.755Z,636.9
2022-12-24T01:19:42.418Z,637.7
2022-12-24T01:20:44.918Z,638.4
2022-12-24T01:21:46.939Z,637.8
2022-12-24T01:22:49.222Z,637.4
2022-12-24T01:23:51.778Z,637.6
2022-12-24T01:24:54.019Z,637.4
2022-12-24T01:25:56.252Z,637.9
2022-12-24T01:26:58.758Z,636.9
2022-12-24T01:28:01.290Z,637.1
2022-12-24T01:29:03.539Z,637
2022-12-24T01:30:06.062Z,636.4
2022-12-24T01:31:08.543Z,636.7
2022-12-24T01:32:10.789Z,636.1
2022-12-24T01:33:13.122Z,636.1
2022-12-24T01:34:15.379Z,635.8
2022-12-24T01:35:17.350Z,636.1
2022-12-24T01:36:19.859Z,636.3
2022-12-24T01:37:22.426Z,635.8
2022-12-24T01:38:24.958Z,635.4
2022-12-24T01:39:27.516Z,635.2
2022-12-24T01:40:30.018Z,634.6
2022-12-24T01:41:32.280Z,634
2022-12-24T01:42:34.767Z,634.1
2022-12-24T01:43:37.331Z,634.2
2022-12-24T01:44:39.963Z,634.1
2022-12-24T01:45:42.648Z,633.8
2022-12-24T01:46:45.672Z,633
2022-12-24T01:47:48.331Z,633.5
2022-12-24T01:48:50.990Z,633.5
2022-12-24T01:49:53.502Z,633.3
2022-12-24T01:50:55.754Z,633.1
2022-12-24T01:51:58.004Z,633.2
2022-12-24T01:53:00.269Z,632.9
2022-12-24T01:54:02.279Z,632.9
2022-12-24T01:55:04.850Z,632.4
2022-12-24T01:56:07.128Z,632
2022-12-24T01:57:10.311Z,631.9
2022-12-24T01:58:12.662Z,632.1
2022-12-24T01:59:14.901Z,631.9
2022-12-24T02:00:17.488Z,631.5
2022-12-24T02:01:20.747Z,632.3
2022-12-24T02:02:24.563Z,631.6
2022-12-24T02:03:27.511Z,631.2
2022-12-24T02:04:30.186Z,631.5
2022-12-24T02:05:32.412Z,630.9
2022-12-24T02:06:34.643Z,631.4
2022-12-24T02:07:37.170Z,631.5
2022-12-24T02:08:39.675Z,631.3
2022-12-24T02:09:42.189Z,631.7
2022-12-24T02:10:44.433Z,631.3
2022-12-24T02:11:46.992Z,631.2
2022-12-24T02:12:49.275Z,630.9
2022-12-24T02:13:51.800Z,630.7
2022-12-24T02:14:54.052Z,630.7
2022-12-24T02:15:56.748Z,631
2022-12-24T02:16:59.275Z,630.3
2022-12-24T02:18:01.774Z,630.5
2022-12-24T02:19:04.309Z,630.7
2022-12-24T02:20:06.664Z,630.6
2022-12-24T02:21:08.901Z,630.9
2022-12-24T02:22:11.135Z,630.6
2022-12-24T02:23:13.109Z,631.2
2022-12-24T02:24:15.360Z,631.5
2022-12-24T02:25:17.351Z,630.5
2022-12-24T02:26:19.892Z,631.4
2022-12-24T02:27:22.399Z,631.3
2022-12-24T02:28:24.613Z,631
2022-12-24T02:29:27.131Z,631.4
2022-12-24T02:30:29.362Z,631.1
2022-12-24T02:31:31.948Z,630.6
2022-12-24T02:32:34.505Z,630.7
2022-12-24T02:33:37.042Z,630.3
2022-12-24T02:34:39.550Z,630.1
2022-12-24T02:35:42.189Z,630.1
2022-12-24T02:36:44.715Z,629.7
2022-12-24T02:37:47.315Z,629.6
2022-12-24T02:38:49.544Z,629.3
2022-12-24T02:39:52.047Z,629.1
2022-12-24T02:40:55.448Z,628.9
2022-12-24T02:41:57.739Z,628.3
2022-12-24T02:42:59.958Z,628.1
2022-12-24T02:44:02.452Z,629
2022-12-24T02:45:04.780Z,628.6
2022-12-24T02:46:07.258Z,628.9
2022-12-24T02:47:10.399Z,628.8
2022-12-24T02:48:12.983Z,628.7
2022-12-24T02:49:15.507Z,629.1
2022-12-24T02:50:18.021Z,628.9
2022-12-24T02:51:20.657Z,628.5
2022-12-24T02:52:23.154Z,628.4
2022-12-24T02:53:25.100Z,628.1
2022-12-24T02:54:27.639Z,628.6
2022-12-24T02:55:29.884Z,628.3
2022-12-24T02:56:32.126Z,628.2
2022-12-24T02:57:34.643Z,628
2022-12-24T02:58:36.895Z,628.4
2022-12-24T02:59:39.400Z,628.4
2022-12-24T03:00:41.736Z,628.4
2022-12-24T03:01:45.294Z,628.6
2022-12-24T03:02:47.739Z,628.1
2022-12-24T03:03:51.468Z,628.6
2022-12-24T03:04:54.853Z,628.6
2022-12-24T03:05:57.378Z,628
2022-12-24T03:07:00.021Z,628.3
2022-12-24T03:08:02.625Z,628.3
2022-12-24T03:09:05.142Z,628
2022-12-24T03:10:07.651Z,628.6
2022-12-24T03:11:10.211Z,627.8
2022-12-24T03:12:12.485Z,628.1
2022-12-24T03:13:15.015Z,628.1
2022-12-24T03:14:17.281Z,627.6
2022-12-24T03:15:19.512Z,627.6
2022-12-24T03:16:22.555Z,627.5
2022-12-24T03:17:25.135Z,627
2022-12-24T03:18:27.411Z,626.9
2022-12-24T03:19:29.685Z,627
2022-12-24T03:20:32.224Z,627.6
2022-12-24T03:21:34.817Z,627.3
2022-12-24T03:22:37.449Z,627.4
2022-12-24T03:23:40.004Z,627.5
2022-12-24T03:24:41.982Z,627.7
2022-12-24T03:25:44.491Z,627.7
2022-12-24T03:26:47.021Z,627.7
2022-12-24T03:27:49.247Z,628
2022-12-24T03:28:51.759Z,627.8
2022-12-24T03:29:54.027Z,628
2022-12-24T03:30:56.567Z,628
2022-12-24T03:31:59.546Z,627.5
2022-12-24T03:33:02.112Z,627.7
2022-12-24T03:34:04.426Z,627.5
2022-12-24T03:35:06.947Z,627
2022-12-24T03:36:09.479Z,627.2
2022-12-24T03:37:11.440Z,627.1
2022-12-24T03:38:14.191Z,626.7
2022-12-24T03:39:16.754Z,626.7
2022-12-24T03:40:18.994Z,626.6
2022-12-24T03:41:21.512Z,626.2
2022-12-24T03:42:23.736Z,625.9
2022-12-24T03:43:26.277Z,625.2
2022-12-24T03:44:28.814Z,625.5
2022-12-24T03:45:31.326Z,625.2
2022-12-24T03:46:33.856Z,625.7
2022-12-24T03:47:35.568Z,625.8
2022-12-24T03:48:38.208Z,625.7
2022-12-24T03:49:40.716Z,626.3
2022-12-24T03:50:43.235Z,626
2022-12-24T03:51:45.223Z,626.1
2022-12-24T03:52:47.720Z,626.5
2022-12-24T03:53:50.064Z,626.8
2022-12-24T03:54:52.322Z,626.9
2022-12-24T03:55:54.280Z,627.6
2022-12-24T03:56:56.806Z,627
2022-12-24T03:57:59.108Z,626.9
2022-12-24T03:59:01.399Z,626.1
2022-12-24T04:00:04.082Z,625.5
2022-12-24T04:01:07.542Z,625.7
2022-12-24T04:02:11.206Z,624.7
2022-12-24T04:03:14.602Z,624.3
2022-12-24T04:04:17.174Z,624.2
2022-12-24T04:05:19.160Z,624
2022-12-24T04:06:21.719Z,623.9
2022-12-24T04:07:23.953Z,623.5
2022-12-24T04:08:26.160Z,623.6
2022-12-24T04:09:28.809Z,623.5
2022-12-24T04:10:31.364Z,624
2022-12-24T04:11:33.595Z,623.6
2022-12-24T04:12:36.141Z,623.6
2022-12-24T04:13:38.681Z,622.6
2022-12-24T04:14:40.897Z,622.8
2022-12-24T04:15:43.451Z,623
2022-12-24T04:16:45.979Z,622.5
2022-12-24T04:17:48.515Z,622
2022-12-24T04:18:51.044Z,621.3
2022-12-24T04:19:53.561Z,621.7
2022-12-24T04:20:55.264Z,621.6
2022-12-24T04:21:57.513Z,622.1
2022-12-24T04:23:00.055Z,622.6
2022-12-24T04:24:02.325Z,622.1
2022-12-24T04:25:05.015Z,622.3
2022-12-24T04:26:07.570Z,621.9
2022-12-24T04:27:10.084Z,622.2
2022-12-24T04:28:12.587Z,622.3
2022-12-24T04:29:15.218Z,622.6
2022-12-24T04:30:17.783Z,621.8
2022-12-24T04:31:20.805Z,621.7
2022-12-24T04:32:23.455Z,621
2022-12-24T04:33:25.962Z,620.9
2022-12-24T04:34:28.470Z,620.2
2022-12-24T04:35:30.687Z,620.4
2022-12-24T04:36:33.236Z,620.5
2022-12-24T04:37:35.532Z,620.6
2022-12-24T04:38:38.032Z,621.4
2022-12-24T04:39:40.285Z,621.3
2022-12-24T04:40:42.908Z,621
2022-12-24T04:41:44.865Z,621.2
2022-12-24T04:42:47.097Z,621.1
2022-12-24T04:43:49.339Z,620.8
2022-12-24T04:44:51.849Z,620.7
2022-12-24T04:45:54.402Z,620.9
2022-12-24T04:46:56.925Z,620.6
2022-12-24T04:47:59.475Z,620.1
2022-12-24T04:49:02.031Z,620
2022-12-24T04:50:04.655Z,619.9
2022-12-24T04:51:06.941Z,619.7
2022-12-24T04:52:09.450Z,620.2
2022-12-24T04:53:11.677Z,619.4
2022-12-24T04:54:14.191Z,619.1
2022-12-24T04:55:16.730Z,619.3
2022-12-24T04:56:19.385Z,618.7
2022-12-24T04:57:21.891Z,618.7
2022-12-24T04:58:24.155Z,618.3
2022-12-24T04:59:26.415Z,618.3
2022-12-24T05:00:28.638Z,619.1
2022-12-24T05:01:31.657Z,618.5
2022-12-24T05:02:35.523Z,619.3
2022-12-24T05:03:38.532Z,618.5
2022-12-24T05:04:40.777Z,619
2022-12-24T05:05:43.275Z,619.5
2022-12-24T05:06:45.800Z,619.2
2022-12-24T05:07:48.010Z,619
2022-12-24T05:08:50.603Z,619.2
2022-12-24T05:09:53.153Z,619.1
2022-12-24T05:10:55.396Z,619.1
2022-12-24T05:11:58.024Z,619.1
2022-12-24T05:13:00.266Z,618.5
2022-12-24T05:14:02.834Z,619
2022-12-24T05:15:05.331Z,619
2022-12-24T05:16:07.859Z,619.2
2022-12-24T05:17:11.052Z,619
2022-12-24T05:18:13.330Z,618.4
2022-12-24T05:19:16.033Z,618.5
2022-12-24T05:20:18.541Z,618.3
2022-12-24T05:21:20.775Z,618.3
2022-12-24T05:22:22.792Z,618.7
2022-12-24T05:23:25.312Z,618.6
2022-12-24T05:24:27.285Z,618.7
2022-12-24T05:25:29.807Z,618.9
2022-12-24T05:26:32.113Z,618.8
2022-12-24T05:27:34.799Z,617.8
2022-12-24T05:28:37.293Z,618
2022-12-24T05:29:39.525Z,618.2
2022-12-24T05:30:42.307Z,618.4
2022-12-24T05:31:44.658Z,618.4
2022-12-24T05:32:47.189Z,618.1
2022-12-24T05:33:49.703Z,617.9
2022-12-24T05:34:52.163Z,617.6
2022-12-24T05:35:54.686Z,617.5
2022-12-24T05:36:57.223Z,617.9
2022-12-24T05:37:59.481Z,617.8
2022-12-24T05:39:02.026Z,618.1
2022-12-24T05:40:04.399Z,617.3
2022-12-24T05:41:06.677Z,617.1
2022-12-24T05:42:09.202Z,616.7
2022-12-24T05:43:11.845Z,616.8
2022-12-24T05:44:14.432Z,616.4
2022-12-24T05:45:16.927Z,616.2
2022-12-24T05:46:19.976Z,615.7
2022-12-24T05:47:22.596Z,615.7
2022-12-24T05:48:25.142Z,615.7
2022-12-24T05:49:27.717Z,615.9
2022-12-24T05:50:29.423Z,615.9
2022-12-24T05:51:31.696Z,615.7
2022-12-24T05:52:33.922Z,615.6
2022-12-24T05:53:36.442Z,615.1
2022-12-24T05:54:38.945Z,615.3
2022-12-24T05:55:41.529Z,614.8
2022-12-24T05:56:43.505Z,614.7
2022-12-24T05:57:45.741Z,614.6
2022-12-24T05:58:48.405Z,614.4
2022-12-24T05:59:50.937Z,615
2022-12-24T06:00:53.452Z,615.2
2022-12-24T06:01:55.963Z,615
2022-12-24T06:02:58.532Z,615.3
2022-12-24T06:04:01.300Z,614.7
2022-12-24T06:05:04.224Z,614.6
2022-12-24T06:06:06.514Z,614.3
2022-12-24T06:07:08.764Z,614.3
2022-12-24T06:08:10.997Z,613.8
2022-12-24T06:09:13.599Z,613.8
2022-12-24T06:10:15.534Z,613.8
2022-12-24T06:11:18.012Z,613.8
2022-12-24T06:12:20.522Z,613.4
2022-12-24T06:13:23.103Z,613.5
2022-12-24T06:14:25.747Z,613.2
2022-12-24T06:15:27.987Z,612.7
2022-12-24T06:16:30.928Z,612.9
2022-12-24T06:17:33.485Z,612.5
2022-12-24T06:18:36.088Z,612.2
2022-12-24T06:19:38.619Z,612
2022-12-24T06:20:40.827Z,612.1
2022-12-24T06:21:43.357Z,612.4
2022-12-24T06:22:45.593Z,613
2022-12-24T06:23:47.924Z,613
2022-12-24T06:24:50.448Z,613.2
2022-12-24T06:25:53.011Z,613.1
2022-12-24T06:26:55.569Z,614
2022-12-24T06:27:57.808Z,613.8
2022-12-24T06:29:00.051Z,614.1
2022-12-24T06:30:02.778Z,614
2022-12-24T06:31:06.304Z,613.2
2022-12-24T06:32:08.838Z,613.2
2022-12-24T06:33:11.056Z,612.9
2022-12-24T06:34:13.289Z,613
2022-12-24T06:35:15.267Z,612.8
2022-12-24T06:37:22.460Z,612.8
2022-12-24T06:38:24.442Z,612.2
2022-12-24T06:39:26.768Z,612
2022-12-24T06:40:29.267Z,611.9
2022-12-24T06:41:31.239Z,612.4
2022-12-24T06:42:33.467Z,612.3
2022-12-24T06:43:35.966Z,612.3
2022-12-24T06:44:38.496Z,612.1
2022-12-24T06:45:41.052Z,611.8
2022-12-24T06:46:43.939Z,611.9
2022-12-24T06:47:46.506Z,611.5
2022-12-24T06:48:49.126Z,611.7
2022-12-24T06:49:51.637Z,611.1
2022-12-24T06:50:54.704Z,612.2
2022-12-24T06:51:57.220Z,611.9
2022-12-24T06:52:59.820Z,612.5
2022-12-24T06:54:02.319Z,612.3
2022-12-24T06:55:04.261Z,611.8
2022-12-24T06:56:06.529Z,611.7
2022-12-24T06:57:09.034Z,610.7
2022-12-24T06:58:11.267Z,610.2
2022-12-24T06:59:13.886Z,610.2
2022-12-24T07:00:16.388Z,609.6
2022-12-24T07:01:20.318Z,610.1
2022-12-24T07:02:23.992Z,610.8
2022-12-24T07:03:27.022Z,611.1
2022-12-24T07:04:30.115Z,610.6
2022-12-24T07:05:32.692Z,610.2
2022-12-24T07:06:34.633Z,611
2022-12-24T07:07:36.574Z,610.8
2022-12-24T07:08:38.789Z,611.4
2022-12-24T07:09:41.304Z,611.5
2022-12-24T07:11:49.766Z,610.7
2022-12-24T07:12:52.286Z,610.5
2022-12-24T07:13:54.904Z,610
2022-12-24T07:14:57.953Z,610.7
2022-12-24T07:16:01.384Z,610.2
2022-12-24T07:17:05.387Z,610.4
2022-12-24T07:18:07.952Z,609.8
2022-12-24T07:19:10.190Z,609.9
2022-12-24T07:20:12.719Z,609.8
2022-12-24T07:21:14.741Z,609.4
2022-12-24T07:22:17.706Z,609.4
2022-12-24T07:23:20.246Z,609.2
2022-12-24T07:24:22.230Z,608.8
2022-12-24T07:25:24.182Z,608.6
2022-12-24T07:26:26.421Z,608.8
2022-12-24T07:27:28.421Z,608.5
2022-12-24T07:28:30.962Z,608.1
2022-12-24T07:29:32.928Z,608.1
2022-12-24T07:30:35.181Z,608.2
2022-12-24T07:31:38.247Z,608.7
2022-12-24T07:32:40.939Z,608.1
2022-12-24T07:33:43.475Z,608.4
2022-12-24T07:34:46.019Z,608.1
2022-12-24T07:36:53.523Z,608.6
2022-12-24T07:37:56.062Z,608
2022-12-24T07:38:57.768Z,608
2022-12-24T07:40:00.337Z,607.7
2022-12-24T07:41:02.615Z,607.3
2022-12-24T07:42:05.128Z,607.1
2022-12-24T07:43:07.658Z,606.5
2022-12-24T07:44:09.608Z,606.2
2022-12-24T07:45:11.579Z,605.8
2022-12-24T07:46:14.309Z,605.9
2022-12-24T07:47:16.651Z,605.5
2022-12-24T07:48:19.284Z,605.3
2022-12-24T07:49:21.550Z,605.1
2022-12-24T07:50:23.800Z,605
2022-12-24T07:51:26.319Z,604.9
2022-12-24T07:52:28.872Z,605.2
2022-12-24T07:53:31.132Z,605.1
2022-12-24T07:54:33.108Z,605
2022-12-24T07:55:35.339Z,604.9
2022-12-24T07:56:37.952Z,604.3
2022-12-24T07:57:40.459Z,604.5
2022-12-24T07:58:42.796Z,604.7
2022-12-24T07:59:45.330Z,604.3
2022-12-24T08:00:47.889Z,604
2022-12-24T08:01:51.694Z,603.9
2022-12-24T08:02:55.081Z,603.8
2022-12-24T08:03:58.336Z,603
2022-12-24T08:05:00.599Z,603.1
2022-12-24T08:06:03.121Z,603.7
2022-12-24T08:07:05.344Z,603.3
2022-12-24T08:08:07.852Z,603
2022-12-24T08:09:10.124Z,602.5
2022-12-24T08:10:12.637Z,602.6
2022-12-24T08:11:14.591Z,602.2
2022-12-24T08:12:16.803Z,602.6
2022-12-24T08:13:19.319Z,602.7
2022-12-24T08:14:21.637Z,602.4
2022-12-24T08:15:24.164Z,602.2
2022-12-24T08:16:27.053Z,601.7
2022-12-24T08:18:34.299Z,601.6
2022-12-24T08:19:36.926Z,601
2022-12-24T08:20:39.479Z,600.3
2022-12-24T08:21:42.103Z,600.5
2022-12-24T08:22:44.610Z,600
2022-12-24T08:23:46.821Z,599.9
2022-12-24T08:24:49.390Z,600.2
2022-12-24T08:25:51.924Z,600.2
2022-12-24T08:26:54.760Z,599.8
2022-12-24T08:27:57.044Z,599.8
2022-12-24T08:28:59.605Z,600.3
2022-12-24T08:30:02.732Z,599.8
2022-12-24T08:31:05.650Z,599.6
2022-12-24T08:32:08.513Z,598.9
2022-12-24T08:33:10.830Z,599.5
2022-12-24T08:34:13.354Z,599.7
2022-12-24T08:35:16.131Z,599.6
2022-12-24T08:36:18.407Z,600.2
2022-12-24T08:37:20.946Z,600.2
2022-12-24T08:38:23.237Z,600.1
2022-12-24T08:39:25.749Z,599.7
2022-12-24T08:40:28.295Z,599.8
2022-12-24T08:41:30.813Z,600.3
2022-12-24T08:42:33.678Z,600
2022-12-24T08:43:36.215Z,600.1
2022-12-24T08:44:38.452Z,599.4
2022-12-24T08:45:43.144Z,599.5
2022-12-24T08:46:46.180Z,599.2
2022-12-24T08:47:48.439Z,598.5
2022-12-24T08:48:50.994Z,598.6
2022-12-24T08:49:53.490Z,598.3
2022-12-24T08:50:56.125Z,597.6
2022-12-24T08:51:58.094Z,598.2
2022-12-24T08:53:00.627Z,598.5
2022-12-24T08:54:03.159Z,598.1
2022-12-24T08:55:05.501Z,597.9
2022-12-24T08:56:07.756Z,597.6
2022-12-24T08:57:10.316Z,597.8
2022-12-24T08:58:13.035Z,597.7
2022-12-24T08:59:15.582Z,597.2
2022-12-24T09:00:18.135Z,597.4
2022-12-24T09:01:21.759Z,596.9
2022-12-24T09:02:25.826Z,596.1
2022-12-24T09:03:30.362Z,595.8
2022-12-24T09:04:32.649Z,595.9
2022-12-24T09:05:35.188Z,595.9
2022-12-24T09:06:38.653Z,595.6
2022-12-24T09:07:41.149Z,595.7
2022-12-24T09:08:43.686Z,595.7
2022-12-24T09:09:45.945Z,595.2
2022-12-24T09:10:48.167Z,595
2022-12-24T09:11:50.684Z,594.9
2022-12-24T09:12:53.222Z,594.7
2022-12-24T09:13:55.183Z,594.5
2022-12-24T09:16:02.589Z,594.1
2022-12-24T09:17:05.499Z,594.1
2022-12-24T09:18:07.778Z,593
2022-12-24T09:19:10.012Z,593.6
2022-12-24T09:20:12.039Z,593.1
2022-12-24T09:21:13.996Z,592.4
2022-12-24T09:22:16.657Z,592.2
2022-12-24T09:23:19.180Z,592.2
2022-12-24T09:24:21.425Z,591.8
2022-12-24T09:25:23.697Z,592
2022-12-24T09:26:26.223Z,591.7
2022-12-24T09:27:28.472Z,591.6
2022-12-24T09:28:30.990Z,592
2022-12-24T09:29:33.229Z,592.1
2022-12-24T09:30:35.178Z,592.3
2022-12-24T09:31:38.037Z,592.3
2022-12-24T09:32:40.901Z,591.9
2022-12-24T09:33:43.512Z,592
2022-12-24T09:34:45.794Z,592.1
2022-12-24T09:35:48.029Z,591.9
2022-12-24T09:36:49.995Z,591.8
2022-12-24T09:37:52.666Z,592.4
2022-12-24T09:38:54.924Z,592.4
2022-12-24T09:39:57.448Z,591.7
2022-12-24T09:42:04.990Z,592
2022-12-24T09:43:07.488Z,592
2022-12-24T09:44:09.749Z,592.1
2022-12-24T09:45:12.311Z,592.4
2022-12-24T09:46:15.488Z,592.3
2022-12-24T09:47:17.750Z,592.3
2022-12-24T09:48:20.009Z,592.8
2022-12-24T09:49:22.535Z,592.2
2022-12-24T09:50:25.086Z,592.7
2022-12-24T09:51:27.618Z,592.8
2022-12-24T09:52:29.877Z,593
2022-12-24T09:53:32.528Z,593.5
2022-12-24T09:54:35.040Z,593.2
2022-12-24T09:55:37.547Z,593.2
2022-12-24T09:56:40.603Z,593.3
2022-12-24T09:57:42.608Z,592.9
2022-12-24T09:58:44.557Z,593.1
2022-12-24T09:59:47.099Z,593
2022-12-24T10:01:55.369Z,593.8
2022-12-24T10:02:58.401Z,593.2
2022-12-24T10:03:59.835Z,593.9
2022-12-24T10:05:02.334Z,593.5
2022-12-24T10:06:04.890Z,593.4
2022-12-24T10:07:07.408Z,593.7
2022-12-24T10:08:09.930Z,593.5
2022-12-24T10:09:12.613Z,593.5
2022-12-24T10:10:15.135Z,593.4
2022-12-24T10:11:17.398Z,593.3
2022-12-24T10:12:19.970Z,593.5
2022-12-24T10:13:22.533Z,593.9
2022-12-24T10:14:25.027Z,593.9
2022-12-24T10:15:26.971Z,593.9
2022-12-24T10:16:29.515Z,594.3
2022-12-24T10:17:32.050Z,593.7
2022-12-24T10:18:34.631Z,593.5
2022-12-24T10:19:37.168Z,593.6
2022-12-24T10:20:39.691Z,593.7
2022-12-24T10:21:41.942Z,594.2
2022-12-24T10:22:45.119Z,593.7
2022-12-24T10:23:47.385Z,593.6
2022-12-24T10:25:55.000Z,593.6
2022-12-24T10:26:57.540Z,593.6
2022-12-24T10:27:59.527Z,593
2022-12-24T10:29:02.174Z,593.1
2022-12-24T10:30:04.514Z,592.6
2022-12-24T10:31:07.737Z,592.6
2022-12-24T10:32:10.321Z,592.6
2022-12-24T10:33:12.621Z,593.4
2022-12-24T10:34:15.161Z,593.1
2022-12-24T10:35:17.766Z,593.1
2022-12-24T10:36:20.332Z,593.6
2022-12-24T10:37:22.587Z,593.1
2022-12-24T10:38:25.107Z,593.2
2022-12-24T10:39:27.633Z,593.2
2022-12-24T10:40:30.003Z,593.4
2022-12-24T10:41:33.284Z,593.9
2022-12-24T10:42:35.541Z,594.8
2022-12-24T10:43:38.085Z,594.7
2022-12-24T10:44:39.773Z,595.1
2022-12-24T10:45:42.448Z,595
2022-12-24T10:46:45.390Z,594.5
2022-12-24T10:47:47.440Z,594.7
2022-12-24T10:49:54.666Z,594.6
2022-12-24T10:50:56.671Z,594.5
2022-12-24T10:51:58.918Z,594.3
2022-12-24T10:53:00.901Z,594.5
2022-12-24T10:54:03.175Z,593.9
2022-12-24T10:55:05.514Z,593.8
2022-12-24T10:56:08.084Z,593.7
2022-12-24T10:57:10.686Z,593.2
2022-12-24T10:58:13.211Z,593.6
2022-12-24T10:59:15.480Z,593.2
2022-12-24T11:00:17.503Z,593.3
2022-12-24T11:01:20.756Z,593
2022-12-24T11:02:24.669Z,593.8
2022-12-24T11:03:27.768Z,592.8
2022-12-24T11:04:30.049Z,592.6
2022-12-24T11:05:32.329Z,592.8
2022-12-24T11:06:34.566Z,592.7
2022-12-24T11:07:37.099Z,592.5
2022-12-24T11:08:39.334Z,592.9
2022-12-24T11:09:41.844Z,592.8
2022-12-24T11:10:44.098Z,593.1
2022-12-24T11:11:46.367Z,592.4
2022-12-24T11:13:53.709Z,592.6
2022-12-24T11:14:56.231Z,592.5
2022-12-24T11:15:58.924Z,592.1
2022-12-24T11:17:00.897Z,592
2022-12-24T11:18:03.427Z,591.6
2022-12-24T11:19:06.024Z,591.5
2022-12-24T11:20:08.563Z,591.2
2022-12-24T11:21:11.085Z,591.9
2022-12-24T11:22:13.315Z,592.1
2022-12-24T11:23:15.564Z,592.1
2022-12-24T11:24:18.069Z,591.9
2022-12-24T11:25:19.576Z,592.1
2022-12-24T11:26:22.143Z,592.3
2022-12-24T11:27:24.690Z,592.3
2022-12-24T11:28:27.192Z,591.9
2022-12-24T11:29:29.839Z,592.8
2022-12-24T11:30:32.413Z,592.6
2022-12-24T11:31:35.346Z,592.9
2022-12-24T11:32:37.892Z,592.6
2022-12-24T11:33:40.391Z,592.6
2022-12-24T11:34:42.628Z,593.4
2022-12-24T11:35:45.139Z,594.2
2022-12-24T11:36:47.396Z,594.5
2022-12-24T11:37:49.910Z,593.9
2022-12-24T11:38:52.412Z,593.9
2022-12-24T11:39:55.041Z,594.1
2022-12-24T11:40:57.013Z,594
2022-12-24T11:41:59.259Z,594.4
2022-12-24T11:43:01.815Z,594.5
2022-12-24T11:44:04.437Z,594.8
2022-12-24T11:45:07.048Z,594.4
2022-12-24T11:46:09.789Z,594.4
2022-12-24T11:47:12.363Z,594.5
2022-12-24T11:48:14.874Z,594.5
2022-12-24T11:49:17.151Z,594.5
2022-12-24T11:50:21.047Z,594
2022-12-24T11:51:23.578Z,593.8
2022-12-24T11:52:26.149Z,593.4
2022-12-24T11:53:28.397Z,593.5
2022-12-24T11:54:30.685Z,593.3
2022-12-24T11:55:32.990Z,593.6
2022-12-24T11:56:35.215Z,593.5
2022-12-24T11:57:37.746Z,593.7
2022-12-24T11:58:40.324Z,593.5
2022-12-24T11:59:42.619Z,593.3
2022-12-24T12:00:45.230Z,593.2
2022-12-24T12:01:48.081Z,594
2022-12-24T12:02:50.805Z,594.3
2022-12-24T12:03:53.797Z,594
2022-12-24T12:04:56.106Z,594.7
2022-12-24T12:05:58.082Z,594.9
2022-12-24T12:07:00.048Z,594.7
2022-12-24T12:08:02.652Z,594.8
2022-12-24T12:09:05.244Z,594.8
2022-12-24T12:10:07.805Z,594.7
2022-12-24T12:11:10.065Z,594.8
2022-12-24T12:12:12.307Z,595.2
2022-12-24T12:14:19.266Z,594.7
2022-12-24T12:15:21.829Z,594.5
2022-12-24T12:16:24.956Z,594.9
2022-12-24T12:17:27.207Z,595.2
2022-12-24T12:18:29.735Z,595.2
2022-12-24T12:19:31.979Z,595
2022-12-24T12:20:34.813Z,595.6
2022-12-24T12:21:36.784Z,595.4
2022-12-24T12:22:38.444Z,595
2022-12-24T12:23:40.691Z,595.5
2022-12-24T12:24:43.229Z,595.9
2022-12-24T12:25:45.754Z,596
2022-12-24T12:26:47.449Z,596
2022-12-24T12:27:49.466Z,595.5
2022-12-24T12:28:51.669Z,595.5
2022-12-24T12:29:53.671Z,595.1
2022-12-24T12:30:55.598Z,595.4
2022-12-24T12:31:58.854Z,595.5
2022-12-24T12:33:01.879Z,595.2
2022-12-24T12:34:04.487Z,594.9
2022-12-24T12:35:06.745Z,595
2022-12-24T12:36:09.031Z,595.7
2022-12-24T12:38:16.540Z,594.5
2022-12-24T12:39:18.484Z,594.3
2022-12-24T12:40:21.000Z,594.4
2022-12-24T12:41:22.990Z,593.4
2022-12-24T12:42:25.227Z,593.4
2022-12-24T12:43:27.739Z,593.4
2022-12-24T12:44:30.254Z,593.2
2022-12-24T12:45:32.266Z,593.2
2022-12-24T12:46:34.771Z,592.7
2022-12-24T12:47:37.434Z,594
2022-12-24T12:48:39.687Z,593
2022-12-24T12:49:42.230Z,593.2
2022-12-24T12:50:44.235Z,593
2022-12-24T12:51:46.764Z,592.7
2022-12-24T12:52:49.028Z,592.1
2022-12-24T12:53:51.545Z,592
2022-12-24T12:54:54.051Z,592
2022-12-24T12:55:56.036Z,591.6
2022-12-24T12:56:58.292Z,591.7
2022-12-24T12:58:00.842Z,592.1
2022-12-24T12:59:03.099Z,591.6
2022-12-24T13:00:05.755Z,591.2
2022-12-24T13:01:08.972Z,591
2022-12-24T13:02:12.470Z,591.3
2022-12-24T13:03:15.564Z,591.2
2022-12-24T13:04:18.131Z,591.2
2022-12-24T13:05:20.682Z,591.9
2022-12-24T13:06:23.263Z,592.2
2022-12-24T13:07:25.531Z,592.1
2022-12-24T13:08:28.055Z,592.3
2022-12-24T13:09:30.553Z,591.6
2022-12-24T13:10:33.094Z,591.3
2022-12-24T13:11:35.068Z,591.5
2022-12-24T13:12:37.043Z,591.9
2022-12-24T13:13:39.268Z,591.6
2022-12-24T13:14:41.828Z,591.4
2022-12-24T13:15:44.331Z,591.7
2022-12-24T13:16:47.250Z,591.4
2022-12-24T13:17:49.826Z,591.7
2022-12-24T13:18:52.489Z,591.5
2022-12-24T13:19:55.077Z,591.5
2022-12-24T13:20:57.327Z,591.1
2022-12-24T13:21:59.833Z,591.1
2022-12-24T13:23:01.859Z,590.8
2022-12-24T13:24:04.131Z,590.9
2022-12-24T13:25:06.656Z,590.4
2022-12-24T13:26:08.641Z,590.8
2022-12-24T13:27:11.136Z,590.5
2022-12-24T13:28:13.068Z,590.7
2022-12-24T13:29:15.358Z,590.8
2022-12-24T13:30:17.900Z,590.4
2022-12-24T13:31:20.399Z,590.2
2022-12-24T13:32:23.017Z,590.4
2022-12-24T13:33:25.515Z,589.6
2022-12-24T13:34:28.169Z,589.7
2022-12-24T13:36:35.695Z,589.7
2022-12-24T13:37:37.935Z,589.7
2022-12-24T13:38:40.474Z,590
2022-12-24T13:39:43.008Z,589.7
2022-12-24T13:40:45.249Z,589.4
2022-12-24T13:41:47.833Z,589.8
2022-12-24T13:42:50.079Z,589.9
2022-12-24T13:43:52.644Z,589.9
2022-12-24T13:44:55.188Z,590.4
2022-12-24T13:45:57.786Z,590